sensor_id;sensor_type;location;lat;lon;timestamp;temperature;humidity
5808;DHT22;2930;42.678;23.312;2023-02-04T00:01:49;2.80;83.70
5808;DHT22;2930;42.678;23.312;2023-02-04T00:04:14;2.80;84.00
5808;DHT22;2930;42.678;23.312;2023-02-04T00:06:40;2.90;84.50
5808;DHT22;2930;42.678;23.312;2023-02-04T00:09:06;2.80;84.40
5808;DHT22;2930;42.678;23.312;2023-02-04T00:11:32;2.80;84.60
5808;DHT22;2930;42.678;23.312;2023-02-04T00:13:58;2.80;84.80
5808;DHT22;2930;42.678;23.312;2023-02-04T00:16:23;2.70;84.90
5808;DHT22;2930;42.678;23.312;2023-02-04T00:18:49;2.70;85.80
5808;DHT22;2930;42.678;23.312;2023-02-04T00:21:15;2.70;86.00
5808;DHT22;2930;42.678;23.312;2023-02-04T00:23:40;2.70;86.20
5808;DHT22;2930;42.678;23.312;2023-02-04T00:26:06;2.60;86.10
5808;DHT22;2930;42.678;23.312;2023-02-04T00:28:32;2.60;86.20
5808;DHT22;2930;42.678;23.312;2023-02-04T00:30:58;2.60;86.30
5808;DHT22;2930;42.678;23.312;2023-02-04T00:33:23;2.60;86.40
5808;DHT22;2930;42.678;23.312;2023-02-04T00:35:49;2.60;86.60
5808;DHT22;2930;42.678;23.312;2023-02-04T00:38:15;2.60;86.70
5808;DHT22;2930;42.678;23.312;2023-02-04T00:40:41;2.50;86.70
5808;DHT22;2930;42.678;23.312;2023-02-04T00:43:06;2.50;87.60
5808;DHT22;2930;42.678;23.312;2023-02-04T00:45:32;2.50;87.30
5808;DHT22;2930;42.678;23.312;2023-02-04T00:47:57;2.40;87.20
5808;DHT22;2930;42.678;23.312;2023-02-04T00:50:23;2.40;87.90
5808;DHT22;2930;42.678;23.312;2023-02-04T00:52:49;2.20;88.60
5808;DHT22;2930;42.678;23.312;2023-02-04T00:55:15;2.20;88.30
5808;DHT22;2930;42.678;23.312;2023-02-04T00:57:43;2.20;88.60
5808;DHT22;2930;42.678;23.312;2023-02-04T01:00:09;2.20;88.40
5808;DHT22;2930;42.678;23.312;2023-02-04T01:02:35;2.20;88.90
5808;DHT22;2930;42.678;23.312;2023-02-04T01:05:01;2.00;90.40
5808;DHT22;2930;42.678;23.312;2023-02-04T01:07:26;2.00;90.10
5808;DHT22;2930;42.678;23.312;2023-02-04T01:09:52;2.00;90.40
5808;DHT22;2930;42.678;23.312;2023-02-04T01:12:18;1.90;91.10
5808;DHT22;2930;42.678;23.312;2023-02-04T01:14:47;1.80;91.10
5808;DHT22;2930;42.678;23.312;2023-02-04T01:17:12;1.80;90.50
5808;DHT22;2930;42.678;23.312;2023-02-04T01:19:38;1.90;90.50
5808;DHT22;2930;42.678;23.312;2023-02-04T01:22:04;1.80;90.40
5808;DHT22;2930;42.678;23.312;2023-02-04T01:24:29;1.90;89.20
5808;DHT22;2930;42.678;23.312;2023-02-04T01:26:55;2.00;88.70
5808;DHT22;2930;42.678;23.312;2023-02-04T01:29:20;1.80;90.30
5808;DHT22;2930;42.678;23.312;2023-02-04T01:31:46;1.80;90.70
5808;DHT22;2930;42.678;23.312;2023-02-04T01:34:12;1.80;90.80
5808;DHT22;2930;42.678;23.312;2023-02-04T01:36:37;1.80;90.50
5808;DHT22;2930;42.678;23.312;2023-02-04T01:39:03;1.80;90.80
5808;DHT22;2930;42.678;23.312;2023-02-04T01:41:29;1.80;90.50
5808;DHT22;2930;42.678;23.312;2023-02-04T01:43:54;1.80;91.20
5808;DHT22;2930;42.678;23.312;2023-02-04T01:46:20;1.80;91.40
5808;DHT22;2930;42.678;23.312;2023-02-04T01:48:46;1.70;92.00
5808;DHT22;2930;42.678;23.312;2023-02-04T01:51:14;1.70;91.90
5808;DHT22;2930;42.678;23.312;2023-02-04T01:53:42;1.70;91.70
5808;DHT22;2930;42.678;23.312;2023-02-04T01:56:17;1.80;91.60
5808;DHT22;2930;42.678;23.312;2023-02-04T01:58:43;1.80;91.30
5808;DHT22;2930;42.678;23.312;2023-02-04T02:01:15;1.80;91.40
5808;DHT22;2930;42.678;23.312;2023-02-04T02:03:41;1.70;92.00
5808;DHT22;2930;42.678;23.312;2023-02-04T02:06:08;1.70;92.60
5808;DHT22;2930;42.678;23.312;2023-02-04T02:08:37;1.60;92.70
5808;DHT22;2930;42.678;23.312;2023-02-04T02:11:03;1.60;92.70
5808;DHT22;2930;42.678;23.312;2023-02-04T02:13:29;1.60;92.70
5808;DHT22;2930;42.678;23.312;2023-02-04T02:15:54;1.60;92.80
5808;DHT22;2930;42.678;23.312;2023-02-04T02:18:20;1.60;92.60
5808;DHT22;2930;42.678;23.312;2023-02-04T02:20:46;1.60;92.60
5808;DHT22;2930;42.678;23.312;2023-02-04T02:23:47;1.70;92.30
5808;DHT22;2930;42.678;23.312;2023-02-04T02:26:15;1.70;92.30
5808;DHT22;2930;42.678;23.312;2023-02-04T02:28:42;1.70;92.30
5808;DHT22;2930;42.678;23.312;2023-02-04T02:31:08;1.70;92.20
5808;DHT22;2930;42.678;23.312;2023-02-04T02:33:34;1.70;91.90
5808;DHT22;2930;42.678;23.312;2023-02-04T02:36:00;1.70;91.90
5808;DHT22;2930;42.678;23.312;2023-02-04T02:38:26;1.70;92.00
5808;DHT22;2930;42.678;23.312;2023-02-04T02:40:52;1.70;91.70
5808;DHT22;2930;42.678;23.312;2023-02-04T02:43:22;1.70;91.50
5808;DHT22;2930;42.678;23.312;2023-02-04T02:45:50;1.70;91.60
5808;DHT22;2930;42.678;23.312;2023-02-04T02:48:16;1.70;91.60
5808;DHT22;2930;42.678;23.312;2023-02-04T02:50:42;1.60;90.90
5808;DHT22;2930;42.678;23.312;2023-02-04T02:53:13;1.60;90.80
5808;DHT22;2930;42.678;23.312;2023-02-04T02:55:39;1.60;91.20
5808;DHT22;2930;42.678;23.312;2023-02-04T03:00:41;1.60;91.50
5808;DHT22;2930;42.678;23.312;2023-02-04T03:03:11;1.60;91.40
5808;DHT22;2930;42.678;23.312;2023-02-04T03:05:41;1.60;91.40
5808;DHT22;2930;42.678;23.312;2023-02-04T03:08:08;1.70;91.50
5808;DHT22;2930;42.678;23.312;2023-02-04T03:10:35;1.70;91.50
5808;DHT22;2930;42.678;23.312;2023-02-04T03:13:01;1.80;91.30
5808;DHT22;2930;42.678;23.312;2023-02-04T03:15:27;1.80;91.30
5808;DHT22;2930;42.678;23.312;2023-02-04T03:17:54;1.80;91.20
5808;DHT22;2930;42.678;23.312;2023-02-04T03:20:23;1.90;90.80
5808;DHT22;2930;42.678;23.312;2023-02-04T03:22:50;2.00;90.40
5808;DHT22;2930;42.678;23.312;2023-02-04T03:25:16;2.00;90.50
5808;DHT22;2930;42.678;23.312;2023-02-04T03:27:42;2.00;90.50
5808;DHT22;2930;42.678;23.312;2023-02-04T03:30:08;2.00;90.60
5808;DHT22;2930;42.678;23.312;2023-02-04T03:32:34;2.00;90.10
5808;DHT22;2930;42.678;23.312;2023-02-04T03:35:00;2.00;90.10
5808;DHT22;2930;42.678;23.312;2023-02-04T03:37:25;2.00;90.30
5808;DHT22;2930;42.678;23.312;2023-02-04T03:39:51;2.00;90.10
5808;DHT22;2930;42.678;23.312;2023-02-04T03:42:16;2.00;89.90
5808;DHT22;2930;42.678;23.312;2023-02-04T03:44:42;1.80;90.30
5808;DHT22;2930;42.678;23.312;2023-02-04T03:47:08;1.90;90.10
5808;DHT22;2930;42.678;23.312;2023-02-04T03:49:34;1.90;90.40
5808;DHT22;2930;42.678;23.312;2023-02-04T03:52:01;1.90;90.00
5808;DHT22;2930;42.678;23.312;2023-02-04T03:54:27;2.00;90.30
5808;DHT22;2930;42.678;23.312;2023-02-04T03:56:53;2.00;89.50
5808;DHT22;2930;42.678;23.312;2023-02-04T03:59:18;2.00;89.80
5808;DHT22;2930;42.678;23.312;2023-02-04T04:01:44;2.00;89.80
5808;DHT22;2930;42.678;23.312;2023-02-04T04:04:09;2.00;89.80
5808;DHT22;2930;42.678;23.312;2023-02-04T04:06:35;2.10;89.90
5808;DHT22;2930;42.678;23.312;2023-02-04T04:09:01;2.10;89.80
5808;DHT22;2930;42.678;23.312;2023-02-04T04:11:26;2.10;89.90
5808;DHT22;2930;42.678;23.312;2023-02-04T04:13:52;2.10;89.90
5808;DHT22;2930;42.678;23.312;2023-02-04T04:16:18;2.20;89.90
5808;DHT22;2930;42.678;23.312;2023-02-04T04:18:45;2.20;89.80
5808;DHT22;2930;42.678;23.312;2023-02-04T04:21:10;2.20;89.70
5808;DHT22;2930;42.678;23.312;2023-02-04T04:23:36;2.30;89.30
5808;DHT22;2930;42.678;23.312;2023-02-04T04:26:02;2.40;88.80
5808;DHT22;2930;42.678;23.312;2023-02-04T04:28:28;2.40;88.70
5808;DHT22;2930;42.678;23.312;2023-02-04T04:30:54;2.40;88.70
5808;DHT22;2930;42.678;23.312;2023-02-04T04:33:19;2.40;89.00
5808;DHT22;2930;42.678;23.312;2023-02-04T04:35:45;2.40;89.10
5808;DHT22;2930;42.678;23.312;2023-02-04T04:38:11;2.40;89.30
5808;DHT22;2930;42.678;23.312;2023-02-04T04:40:36;2.40;88.80
5808;DHT22;2930;42.678;23.312;2023-02-04T04:43:02;2.40;89.10
5808;DHT22;2930;42.678;23.312;2023-02-04T04:45:28;2.40;89.30
5808;DHT22;2930;42.678;23.312;2023-02-04T04:47:54;2.40;89.40
5808;DHT22;2930;42.678;23.312;2023-02-04T04:50:20;2.50;89.00
5808;DHT22;2930;42.678;23.312;2023-02-04T04:52:45;2.50;88.60
5808;DHT22;2930;42.678;23.312;2023-02-04T04:55:11;2.50;88.90
5808;DHT22;2930;42.678;23.312;2023-02-04T04:57:37;2.60;89.10
5808;DHT22;2930;42.678;23.312;2023-02-04T05:00:04;2.60;89.10
5808;DHT22;2930;42.678;23.312;2023-02-04T05:02:31;2.60;88.40
5808;DHT22;2930;42.678;23.312;2023-02-04T05:04:57;2.80;88.30
5808;DHT22;2930;42.678;23.312;2023-02-04T05:07:22;3.00;87.90
5808;DHT22;2930;42.678;23.312;2023-02-04T05:09:48;3.20;87.70
5808;DHT22;2930;42.678;23.312;2023-02-04T05:12:14;3.30;88.00
5808;DHT22;2930;42.678;23.312;2023-02-04T05:14:39;3.50;87.50
5808;DHT22;2930;42.678;23.312;2023-02-04T05:17:05;3.50;87.60
5808;DHT22;2930;42.678;23.312;2023-02-04T05:19:30;3.60;87.40
5808;DHT22;2930;42.678;23.312;2023-02-04T05:21:56;3.60;87.40
5808;DHT22;2930;42.678;23.312;2023-02-04T05:24:22;3.60;87.50
5808;DHT22;2930;42.678;23.312;2023-02-04T05:26:48;3.60;87.50
5808;DHT22;2930;42.678;23.312;2023-02-04T05:29:13;3.70;87.40
5808;DHT22;2930;42.678;23.312;2023-02-04T05:31:39;3.70;87.50
5808;DHT22;2930;42.678;23.312;2023-02-04T05:34:04;3.70;87.90
5808;DHT22;2930;42.678;23.312;2023-02-04T05:36:30;3.70;87.60
5808;DHT22;2930;42.678;23.312;2023-02-04T05:38:56;3.70;87.50
5808;DHT22;2930;42.678;23.312;2023-02-04T05:41:21;3.60;87.80
5808;DHT22;2930;42.678;23.312;2023-02-04T05:43:47;3.60;88.10
5808;DHT22;2930;42.678;23.312;2023-02-04T05:46:13;3.50;88.40
5808;DHT22;2930;42.678;23.312;2023-02-04T05:48:38;3.50;88.30
5808;DHT22;2930;42.678;23.312;2023-02-04T05:51:04;3.50;88.40
5808;DHT22;2930;42.678;23.312;2023-02-04T05:53:30;3.50;88.30
5808;DHT22;2930;42.678;23.312;2023-02-04T05:55:56;3.50;88.20
5808;DHT22;2930;42.678;23.312;2023-02-04T05:58:21;3.30;88.10
5808;DHT22;2930;42.678;23.312;2023-02-04T06:00:47;3.20;87.80
5808;DHT22;2930;42.678;23.312;2023-02-04T06:03:13;3.10;88.00
5808;DHT22;2930;42.678;23.312;2023-02-04T06:05:39;3.10;87.50
5808;DHT22;2930;42.678;23.312;2023-02-04T06:08:05;3.10;87.50
5808;DHT22;2930;42.678;23.312;2023-02-04T06:10:31;3.20;87.40
5808;DHT22;2930;42.678;23.312;2023-02-04T06:12:56;3.20;87.10
5808;DHT22;2930;42.678;23.312;2023-02-04T06:15:22;3.10;87.20
5808;DHT22;2930;42.678;23.312;2023-02-04T06:17:48;3.10;87.20
5808;DHT22;2930;42.678;23.312;2023-02-04T06:20:14;3.20;87.20
5808;DHT22;2930;42.678;23.312;2023-02-04T06:22:40;3.20;86.80
5808;DHT22;2930;42.678;23.312;2023-02-04T06:25:06;3.30;86.40
5808;DHT22;2930;42.678;23.312;2023-02-04T06:27:31;3.40;86.30
5808;DHT22;2930;42.678;23.312;2023-02-04T06:29:57;3.50;85.60
5808;DHT22;2930;42.678;23.312;2023-02-04T06:32:23;3.50;84.90
5808;DHT22;2930;42.678;23.312;2023-02-04T06:34:49;3.50;84.70
5808;DHT22;2930;42.678;23.312;2023-02-04T06:37:14;3.60;84.40
5808;DHT22;2930;42.678;23.312;2023-02-04T06:39:41;3.60;84.00
5808;DHT22;2930;42.678;23.312;2023-02-04T06:42:07;3.60;83.90
5808;DHT22;2930;42.678;23.312;2023-02-04T06:44:33;3.60;84.40
5808;DHT22;2930;42.678;23.312;2023-02-04T06:46:59;3.60;84.30
5808;DHT22;2930;42.678;23.312;2023-02-04T06:49:25;3.80;83.90
5808;DHT22;2930;42.678;23.312;2023-02-04T06:51:51;3.80;83.40
5808;DHT22;2930;42.678;23.312;2023-02-04T06:54:16;3.90;83.00
5808;DHT22;2930;42.678;23.312;2023-02-04T06:56:42;4.00;82.30
5808;DHT22;2930;42.678;23.312;2023-02-04T06:59:09;4.10;81.80
5808;DHT22;2930;42.678;23.312;2023-02-04T07:01:34;4.20;81.70
5808;DHT22;2930;42.678;23.312;2023-02-04T07:04:00;4.50;81.20
5808;DHT22;2930;42.678;23.312;2023-02-04T07:06:26;4.80;80.30
5808;DHT22;2930;42.678;23.312;2023-02-04T07:08:52;5.00;79.60
5808;DHT22;2930;42.678;23.312;2023-02-04T07:11:17;5.30;78.40
5808;DHT22;2930;42.678;23.312;2023-02-04T07:13:43;5.60;77.50
5808;DHT22;2930;42.678;23.312;2023-02-04T07:16:09;5.80;77.20
5808;DHT22;2930;42.678;23.312;2023-02-04T07:18:35;6.00;76.40
5808;DHT22;2930;42.678;23.312;2023-02-04T07:21:00;6.30;75.70
5808;DHT22;2930;42.678;23.312;2023-02-04T07:23:26;6.70;75.00
5808;DHT22;2930;42.678;23.312;2023-02-04T07:25:53;6.50;74.40
5808;DHT22;2930;42.678;23.312;2023-02-04T07:28:21;6.40;74.80
5808;DHT22;2930;42.678;23.312;2023-02-04T07:30:47;6.20;74.70
5808;DHT22;2930;42.678;23.312;2023-02-04T07:33:12;6.30;75.30
5808;DHT22;2930;42.678;23.312;2023-02-04T07:35:38;6.60;74.60
5808;DHT22;2930;42.678;23.312;2023-02-04T07:38:04;7.00;73.30
5808;DHT22;2930;42.678;23.312;2023-02-04T07:40:30;7.10;72.70
5808;DHT22;2930;42.678;23.312;2023-02-04T07:42:55;7.20;72.60
5808;DHT22;2930;42.678;23.312;2023-02-04T07:45:21;7.50;72.50
5808;DHT22;2930;42.678;23.312;2023-02-04T07:47:47;7.80;71.40
5808;DHT22;2930;42.678;23.312;2023-02-04T07:50:13;7.90;71.10
5808;DHT22;2930;42.678;23.312;2023-02-04T07:52:39;8.20;70.70
5808;DHT22;2930;42.678;23.312;2023-02-04T07:55:05;8.40;69.80
5808;DHT22;2930;42.678;23.312;2023-02-04T07:57:31;8.50;69.60
5808;DHT22;2930;42.678;23.312;2023-02-04T07:59:57;8.40;69.70
5808;DHT22;2930;42.678;23.312;2023-02-04T08:02:23;8.00;69.30
5808;DHT22;2930;42.678;23.312;2023-02-04T08:04:49;7.30;71.00
5808;DHT22;2930;42.678;23.312;2023-02-04T08:07:15;7.00;71.90
5808;DHT22;2930;42.678;23.312;2023-02-04T08:09:40;6.90;72.40
5808;DHT22;2930;42.678;23.312;2023-02-04T08:12:06;6.60;72.90
5808;DHT22;2930;42.678;23.312;2023-02-04T08:14:31;6.30;73.70
5808;DHT22;2930;42.678;23.312;2023-02-04T08:16:57;6.10;74.10
5808;DHT22;2930;42.678;23.312;2023-02-04T08:19:23;5.90;74.80
5808;DHT22;2930;42.678;23.312;2023-02-04T08:21:48;5.80;75.30
5808;DHT22;2930;42.678;23.312;2023-02-04T08:24:16;5.60;75.80
5808;DHT22;2930;42.678;23.312;2023-02-04T08:26:42;5.40;76.30
5808;DHT22;2930;42.678;23.312;2023-02-04T08:29:08;5.30;76.80
5808;DHT22;2930;42.678;23.312;2023-02-04T08:31:35;5.30;77.00
5808;DHT22;2930;42.678;23.312;2023-02-04T08:34:03;5.30;77.30
5808;DHT22;2930;42.678;23.312;2023-02-04T08:36:29;5.20;77.40
5808;DHT22;2930;42.678;23.312;2023-02-04T08:38:55;5.20;77.40
5808;DHT22;2930;42.678;23.312;2023-02-04T08:41:20;5.10;77.60
5808;DHT22;2930;42.678;23.312;2023-02-04T08:43:46;5.00;78.20
5808;DHT22;2930;42.678;23.312;2023-02-04T08:46:12;5.10;78.40
5808;DHT22;2930;42.678;23.312;2023-02-04T08:48:37;5.10;78.70
5808;DHT22;2930;42.678;23.312;2023-02-04T08:51:03;5.10;78.90
5808;DHT22;2930;42.678;23.312;2023-02-04T08:53:29;5.10;79.50
5808;DHT22;2930;42.678;23.312;2023-02-04T08:55:55;5.00;80.00
5808;DHT22;2930;42.678;23.312;2023-02-04T08:58:20;4.70;81.50
5808;DHT22;2930;42.678;23.312;2023-02-04T09:00:46;4.70;81.70
5808;DHT22;2930;42.678;23.312;2023-02-04T09:03:12;4.80;81.60
5808;DHT22;2930;42.678;23.312;2023-02-04T09:05:37;4.80;81.50
5808;DHT22;2930;42.678;23.312;2023-02-04T09:08:03;4.80;81.50
5808;DHT22;2930;42.678;23.312;2023-02-04T09:10:29;4.90;81.40
5808;DHT22;2930;42.678;23.312;2023-02-04T09:12:54;4.80;81.10
5808;DHT22;2930;42.678;23.312;2023-02-04T09:15:22;4.80;81.30
5808;DHT22;2930;42.678;23.312;2023-02-04T09:17:49;4.80;80.80
5808;DHT22;2930;42.678;23.312;2023-02-04T09:20:14;4.80;80.90
5808;DHT22;2930;42.678;23.312;2023-02-04T09:22:40;4.90;80.80
5808;DHT22;2930;42.678;23.312;2023-02-04T09:25:06;4.90;80.50
5808;DHT22;2930;42.678;23.312;2023-02-04T09:27:32;4.90;80.00
5808;DHT22;2930;42.678;23.312;2023-02-04T09:29:58;4.90;80.10
5808;DHT22;2930;42.678;23.312;2023-02-04T09:32:24;5.00;79.80
5808;DHT22;2930;42.678;23.312;2023-02-04T09:34:50;5.00;79.80
5808;DHT22;2930;42.678;23.312;2023-02-04T09:37:16;4.90;80.60
5808;DHT22;2930;42.678;23.312;2023-02-04T09:39:42;4.90;81.40
5808;DHT22;2930;42.678;23.312;2023-02-04T09:42:14;4.80;82.00
5808;DHT22;2930;42.678;23.312;2023-02-04T09:44:40;4.90;81.80
5808;DHT22;2930;42.678;23.312;2023-02-04T09:47:09;4.90;82.00
5808;DHT22;2930;42.678;23.312;2023-02-04T09:49:36;4.90;82.60
5808;DHT22;2930;42.678;23.312;2023-02-04T09:52:01;4.80;82.80
5808;DHT22;2930;42.678;23.312;2023-02-04T09:54:27;4.80;83.60
5808;DHT22;2930;42.678;23.312;2023-02-04T09:56:53;4.80;84.00
5808;DHT22;2930;42.678;23.312;2023-02-04T09:59:21;4.90;84.00
5808;DHT22;2930;42.678;23.312;2023-02-04T10:02:14;4.80;84.30
5808;DHT22;2930;42.678;23.312;2023-02-04T10:04:44;4.80;84.30
5808;DHT22;2930;42.678;23.312;2023-02-04T10:07:12;4.70;84.80
5808;DHT22;2930;42.678;23.312;2023-02-04T10:09:39;4.60;85.30
5808;DHT22;2930;42.678;23.312;2023-02-04T10:12:05;4.60;85.80
5808;DHT22;2930;42.678;23.312;2023-02-04T10:14:31;4.50;85.50
5808;DHT22;2930;42.678;23.312;2023-02-04T10:16:59;4.60;85.50
5808;DHT22;2930;42.678;23.312;2023-02-04T10:19:26;4.60;85.20
5808;DHT22;2930;42.678;23.312;2023-02-04T10:21:53;4.60;85.20
5808;DHT22;2930;42.678;23.312;2023-02-04T10:24:21;4.60;84.80
5808;DHT22;2930;42.678;23.312;2023-02-04T10:26:51;4.60;85.00
5808;DHT22;2930;42.678;23.312;2023-02-04T10:29:19;4.60;85.00
5808;DHT22;2930;42.678;23.312;2023-02-04T10:31:47;4.50;85.20
5808;DHT22;2930;42.678;23.312;2023-02-04T10:36:43;4.50;85.60
5808;DHT22;2930;42.678;23.312;2023-02-04T10:39:14;4.60;85.60
5808;DHT22;2930;42.678;23.312;2023-02-04T10:41:45;4.70;85.80
5808;DHT22;2930;42.678;23.312;2023-02-04T10:44:13;4.70;86.40
5808;DHT22;2930;42.678;23.312;2023-02-04T10:46:39;4.60;87.10
5808;DHT22;2930;42.678;23.312;2023-02-04T10:49:21;4.40;88.00
5808;DHT22;2930;42.678;23.312;2023-02-04T10:51:49;4.30;88.80
5808;DHT22;2930;42.678;23.312;2023-02-04T10:54:16;4.20;89.50
5808;DHT22;2930;42.678;23.312;2023-02-04T10:57:22;4.20;89.80
5808;DHT22;2930;42.678;23.312;2023-02-04T11:00:00;4.10;90.00
5808;DHT22;2930;42.678;23.312;2023-02-04T11:02:51;4.20;90.00
5808;DHT22;2930;42.678;23.312;2023-02-04T11:05:20;4.20;89.70
5808;DHT22;2930;42.678;23.312;2023-02-04T11:07:47;4.30;89.60
5808;DHT22;2930;42.678;23.312;2023-02-04T11:10:18;4.30;89.10
5808;DHT22;2930;42.678;23.312;2023-02-04T11:15:45;4.50;88.40
5808;DHT22;2930;42.678;23.312;2023-02-04T11:20:47;4.70;87.80
5808;DHT22;2930;42.678;23.312;2023-02-04T11:25:42;4.80;86.70
5808;DHT22;2930;42.678;23.312;2023-02-04T11:28:24;4.70;87.10
5808;DHT22;2930;42.678;23.312;2023-02-04T11:37:12;4.80;87.60
5808;DHT22;2930;42.678;23.312;2023-02-04T11:39:41;4.80;86.60
5808;DHT22;2930;42.678;23.312;2023-02-04T11:42:39;4.90;87.20
5808;DHT22;2930;42.678;23.312;2023-02-04T11:45:32;4.90;86.80
5808;DHT22;2930;42.678;23.312;2023-02-04T11:48:01;5.00;87.10
5808;DHT22;2930;42.678;23.312;2023-02-04T11:50:32;5.00;86.30
5808;DHT22;2930;42.678;23.312;2023-02-04T11:52:59;5.10;86.80
5808;DHT22;2930;42.678;23.312;2023-02-04T11:55:30;5.10;86.50
5808;DHT22;2930;42.678;23.312;2023-02-04T11:57:56;5.10;86.40
5808;DHT22;2930;42.678;23.312;2023-02-04T12:00:27;5.20;86.10
5808;DHT22;2930;42.678;23.312;2023-02-04T12:03:01;5.20;86.50
5808;DHT22;2930;42.678;23.312;2023-02-04T12:05:40;5.20;85.90
5808;DHT22;2930;42.678;23.312;2023-02-04T12:13:18;5.10;87.40
5808;DHT22;2930;42.678;23.312;2023-02-04T12:15:54;5.00;87.10
5808;DHT22;2930;42.678;23.312;2023-02-04T12:18:22;5.00;87.70
5808;DHT22;2930;42.678;23.312;2023-02-04T12:20:47;4.90;87.60
5808;DHT22;2930;42.678;23.312;2023-02-04T12:23:14;4.90;88.20
5808;DHT22;2930;42.678;23.312;2023-02-04T12:25:40;4.80;88.00
5808;DHT22;2930;42.678;23.312;2023-02-04T12:28:05;4.80;88.40
5808;DHT22;2930;42.678;23.312;2023-02-04T12:30:31;4.70;88.50
5808;DHT22;2930;42.678;23.312;2023-02-04T12:32:57;4.60;89.20
5808;DHT22;2930;42.678;23.312;2023-02-04T12:35:22;4.60;89.20
5808;DHT22;2930;42.678;23.312;2023-02-04T12:37:48;4.60;89.60
5808;DHT22;2930;42.678;23.312;2023-02-04T12:40:15;4.60;89.60
5808;DHT22;2930;42.678;23.312;2023-02-04T12:42:42;4.60;89.00
5808;DHT22;2930;42.678;23.312;2023-02-04T12:45:08;4.70;89.20
5808;DHT22;2930;42.678;23.312;2023-02-04T12:47:35;4.70;87.90
5808;DHT22;2930;42.678;23.312;2023-02-04T12:50:00;4.70;87.30
5808;DHT22;2930;42.678;23.312;2023-02-04T12:52:26;4.70;87.40
5808;DHT22;2930;42.678;23.312;2023-02-04T12:54:52;4.80;87.70
5808;DHT22;2930;42.678;23.312;2023-02-04T12:57:18;4.90;86.80
5808;DHT22;2930;42.678;23.312;2023-02-04T12:59:47;4.90;85.70
5808;DHT22;2930;42.678;23.312;2023-02-04T13:02:14;5.00;85.60
5808;DHT22;2930;42.678;23.312;2023-02-04T13:04:40;5.00;85.50
5808;DHT22;2930;42.678;23.312;2023-02-04T13:07:07;5.00;85.20
5808;DHT22;2930;42.678;23.312;2023-02-04T13:09:33;4.90;85.50
5808;DHT22;2930;42.678;23.312;2023-02-04T13:11:59;4.90;85.60
5808;DHT22;2930;42.678;23.312;2023-02-04T13:14:25;4.90;85.60
5808;DHT22;2930;42.678;23.312;2023-02-04T13:16:50;5.00;85.70
5808;DHT22;2930;42.678;23.312;2023-02-04T13:19:16;5.00;85.60
5808;DHT22;2930;42.678;23.312;2023-02-04T13:21:42;4.90;85.00
5808;DHT22;2930;42.678;23.312;2023-02-04T13:24:07;4.90;85.30
5808;DHT22;2930;42.678;23.312;2023-02-04T13:26:33;4.90;85.40
5808;DHT22;2930;42.678;23.312;2023-02-04T13:28:59;4.90;85.50
5808;DHT22;2930;42.678;23.312;2023-02-04T13:31:24;4.80;85.50
5808;DHT22;2930;42.678;23.312;2023-02-04T13:33:50;4.70;85.60
5808;DHT22;2930;42.678;23.312;2023-02-04T13:36:16;4.70;85.80
5808;DHT22;2930;42.678;23.312;2023-02-04T13:38:41;4.60;86.10
5808;DHT22;2930;42.678;23.312;2023-02-04T13:41:07;4.50;86.10
5808;DHT22;2930;42.678;23.312;2023-02-04T13:43:33;4.50;86.40
5808;DHT22;2930;42.678;23.312;2023-02-04T13:45:58;4.50;86.60
5808;DHT22;2930;42.678;23.312;2023-02-04T13:48:27;4.50;86.70
5808;DHT22;2930;42.678;23.312;2023-02-04T13:50:53;4.50;86.70
5808;DHT22;2930;42.678;23.312;2023-02-04T13:53:18;4.50;86.70
5808;DHT22;2930;42.678;23.312;2023-02-04T13:55:44;4.50;86.90
5808;DHT22;2930;42.678;23.312;2023-02-04T13:58:10;4.50;86.50
5808;DHT22;2930;42.678;23.312;2023-02-04T14:00:35;4.60;86.50
5808;DHT22;2930;42.678;23.312;2023-02-04T14:03:01;4.60;86.40
5808;DHT22;2930;42.678;23.312;2023-02-04T14:05:26;4.60;86.40
5808;DHT22;2930;42.678;23.312;2023-02-04T14:07:52;4.60;85.80
5808;DHT22;2930;42.678;23.312;2023-02-04T14:10:18;4.60;85.80
5808;DHT22;2930;42.678;23.312;2023-02-04T14:12:46;4.60;85.50
5808;DHT22;2930;42.678;23.312;2023-02-04T14:15:12;4.60;85.80
5808;DHT22;2930;42.678;23.312;2023-02-04T14:17:37;4.50;85.90
5808;DHT22;2930;42.678;23.312;2023-02-04T14:20:03;4.50;86.20
5808;DHT22;2930;42.678;23.312;2023-02-04T14:22:30;4.50;86.10
5808;DHT22;2930;42.678;23.312;2023-02-04T14:24:55;4.50;86.00
5808;DHT22;2930;42.678;23.312;2023-02-04T14:27:22;4.50;86.10
5808;DHT22;2930;42.678;23.312;2023-02-04T14:29:47;4.50;86.20
5808;DHT22;2930;42.678;23.312;2023-02-04T14:32:13;4.40;87.30
5808;DHT22;2930;42.678;23.312;2023-02-04T14:34:38;4.30;88.30
5808;DHT22;2930;42.678;23.312;2023-02-04T14:37:04;4.10;87.90
5808;DHT22;2930;42.678;23.312;2023-02-04T14:39:30;4.00;87.90
5808;DHT22;2930;42.678;23.312;2023-02-04T14:41:55;3.90;88.50
5808;DHT22;2930;42.678;23.312;2023-02-04T14:44:21;3.70;88.40
5808;DHT22;2930;42.678;23.312;2023-02-04T14:46:47;3.70;88.80
5808;DHT22;2930;42.678;23.312;2023-02-04T14:49:14;3.60;88.80
5808;DHT22;2930;42.678;23.312;2023-02-04T14:51:40;3.50;88.40
5808;DHT22;2930;42.678;23.312;2023-02-04T14:54:06;3.40;87.70
5808;DHT22;2930;42.678;23.312;2023-02-04T14:56:31;3.40;87.20
5808;DHT22;2930;42.678;23.312;2023-02-04T14:58:57;3.40;87.60
5808;DHT22;2930;42.678;23.312;2023-02-04T15:01:23;3.40;87.30
5808;DHT22;2930;42.678;23.312;2023-02-04T15:03:49;3.30;87.30
5808;DHT22;2930;42.678;23.312;2023-02-04T15:06:15;3.30;87.20
5808;DHT22;2930;42.678;23.312;2023-02-04T15:08:41;3.40;87.20
5808;DHT22;2930;42.678;23.312;2023-02-04T15:11:09;3.40;86.70
5808;DHT22;2930;42.678;23.312;2023-02-04T15:13:35;3.40;86.40
5808;DHT22;2930;42.678;23.312;2023-02-04T15:16:01;3.40;85.90
5808;DHT22;2930;42.678;23.312;2023-02-04T15:18:26;3.40;85.30
5808;DHT22;2930;42.678;23.312;2023-02-04T15:23:37;3.40;84.60
5808;DHT22;2930;42.678;23.312;2023-02-04T15:26:03;3.40;84.50
5808;DHT22;2930;42.678;23.312;2023-02-04T15:28:47;3.40;84.20
5808;DHT22;2930;42.678;23.312;2023-02-04T15:34:16;3.40;84.40
5808;DHT22;2930;42.678;23.312;2023-02-04T15:36:41;3.40;84.60
5808;DHT22;2930;42.678;23.312;2023-02-04T15:39:07;3.30;84.80
5808;DHT22;2930;42.678;23.312;2023-02-04T15:41:33;3.10;84.70
5808;DHT22;2930;42.678;23.312;2023-02-04T15:43:58;3.00;85.50
5808;DHT22;2930;42.678;23.312;2023-02-04T15:46:24;3.00;85.20
5808;DHT22;2930;42.678;23.312;2023-02-04T15:48:50;2.90;84.70
5808;DHT22;2930;42.678;23.312;2023-02-04T15:51:15;2.90;84.70
5808;DHT22;2930;42.678;23.312;2023-02-04T15:53:41;2.80;84.60
5808;DHT22;2930;42.678;23.312;2023-02-04T15:56:06;2.80;84.60
5808;DHT22;2930;42.678;23.312;2023-02-04T15:58:32;2.70;84.60
5808;DHT22;2930;42.678;23.312;2023-02-04T16:00:58;2.70;84.50
5808;DHT22;2930;42.678;23.312;2023-02-04T16:03:24;2.60;84.30
5808;DHT22;2930;42.678;23.312;2023-02-04T16:05:49;2.60;84.20
5808;DHT22;2930;42.678;23.312;2023-02-04T16:08:16;2.50;83.90
5808;DHT22;2930;42.678;23.312;2023-02-04T16:10:42;2.50;84.10
5808;DHT22;2930;42.678;23.312;2023-02-04T16:13:08;2.50;84.00
5808;DHT22;2930;42.678;23.312;2023-02-04T16:15:34;2.50;84.10
5808;DHT22;2930;42.678;23.312;2023-02-04T16:17:59;2.40;83.70
5808;DHT22;2930;42.678;23.312;2023-02-04T16:20:25;2.40;83.70
5808;DHT22;2930;42.678;23.312;2023-02-04T16:22:51;2.40;83.00
5808;DHT22;2930;42.678;23.312;2023-02-04T16:25:17;2.40;82.90
5808;DHT22;2930;42.678;23.312;2023-02-04T16:27:42;2.30;82.00
5808;DHT22;2930;42.678;23.312;2023-02-04T16:30:09;2.30;82.10